Corpus Christi, TX

18:06 CST le 26 novembre 2014 (GMT -0600)
Corpus Christi International | Change Station
CLOSE
Current Station
Aéroport
Location: Corpus Christi,
Altitude: 43 ft
Stations météo à proximité

Alt. 43 ft 27.77 °N, 97.51 °W | Updated 15 minutes ago

Ciel dégagé
Ciel dégagé
61 ° F
Paraît 61 ° F
N
7
Vent Variable Vent de Sud

Aujourd'hui
Haut(e) -- | Bas -- ° F
--% Risque de précip.
Hier
Haut(e) -- | Bas -- ° F
Precip. -- pouce
6:59 AM 5:34 PM
Lune montante, 24% visible
Pression 30.22 pouce
Visibilité 10.0 Miles terrestres
Nuages Ciel dégagé
Point de rosée 46 ° F
Humidité 58%
Précipitations 0.00 pouce
Profondeur de la couche neigeuse Non disponible.
UV 0 sur 12
Pollen 4.20 sur 12
Qualité de l'air Non disponible.
Flu Activity Non disponible.
METAR KCRP 262351Z 17006KT 10SM CLR 16/08 A3022 RMK AO2 SLP234 T01610078 10228 20161 53007

More Conditions Fewer Conditions

Pression 30.22 pouce
Visibilité 10.0 Miles terrestres
Nuages Ciel dégagé
Point de rosée 46 ° F
Humidité 58%
Précipitations 0.00 pouce
Profondeur de la couche neigeuse Non disponible.
UV 0 sur 12
Pollen 4.20 sur 12
Qualité de l'air Non disponible.
Flu Activity Non disponible.
METAR KCRP 262351Z 17006KT 10SM CLR 16/08 A3022 RMK AO2 SLP234 T01610078 10228 20161 53007

More Conditions Fewer Conditions

10-Day Weather Forecast

Almanac

Astronomie

Nov. 26, 2014 Lever Coucher
Temps réel
Crépuscule civil
Crépuscule nautique
Crépuscule astronomique
Lune
Durée de lumière visible
Longueur du jour
Tomorrow will be .
, % of the Moon is Illuminated

Extrêmes aujourd'hui

State Highs State Lows

Community

WunderPhotos

Upload Photos

1,773,926 Photos téléchargées !

WunderBlogs® & News

Nearby

Qualité de l'air

  Qualité de l'air Indice de la qualité de l'air Polluant
Not available.

Épaisseur de neige

Station Depth Altitude

Activité sismique

Ville Distance Mag. Time & Date
Minimum magnitude displayed is 2.5.

Températures des eaux côtières

Lieu Température

Stations météo à proximité